Time;durP1;ratioP1;P1;durP2;ratioP2;P2;SDS_P1;SDS_P2;PMS_P1;PMS_P2;Temp;Humidity;BMP_temperature;BMP_pressure;BME280_temperature;BME280_humidity;BME280_pressure;Samples;Min_cycle;Max_cycle;Signal;HPM_P1;HPM_P2
2023/07/29 00:00:53;;;;;;;11.00;4.25;;;22.10;67.80;;;;;;4945820;28;20490;-69
2023/07/29 00:03:20;;;;;;;6.93;4.20;;;22.70;65.20;;;;;;4951160;28;20412;-67
2023/07/29 00:05:48;;;;;;;9.43;3.92;;;22.90;64.50;;;;;;4949079;28;20038;-69
2023/07/29 00:08:16;;;;;;;6.95;3.80;;;23.50;61.10;;;;;;4948062;28;20038;-69
2023/07/29 00:10:43;;;;;;;8.60;4.07;;;23.70;60.40;;;;;;4957816;28;20034;-68
2023/07/29 00:13:11;;;;;;;5.95;4.10;;;23.70;58.90;;;;;;4947758;28;20040;-69
2023/07/29 00:15:38;;;;;;;8.88;4.03;;;24.70;55.50;;;;;;4947833;28;20112;-69
2023/07/29 00:18:06;;;;;;;6.53;3.78;;;24.60;55.80;;;;;;4946121;28;20027;-69
2023/07/29 00:20:33;;;;;;;6.65;3.65;;;24.70;56.40;;;;;;4947300;28;20059;-70
2023/07/29 00:23:01;;;;;;;4.60;3.20;;;25.00;54.90;;;;;;4950661;28;20027;-70
2023/07/29 00:25:28;;;;;;;7.72;3.40;;;25.10;54.40;;;;;;4953259;28;20110;-68
2023/07/29 00:27:57;;;;;;;7.28;2.88;;;25.40;53.60;;;;;;4946279;28;20106;-69
2023/07/29 00:30:24;;;;;;;3.88;2.85;;;25.10;51.90;;;;;;4950739;28;20066;-69
2023/07/29 00:32:52;;;;;;;6.78;3.22;;;24.60;56.40;;;;;;4948288;28;20038;-69
2023/07/29 00:35:19;;;;;;;6.13;3.40;;;25.10;54.50;;;;;;4950639;28;20039;-69
2023/07/29 00:37:46;;;;;;;8.27;3.30;;;25.50;54.20;;;;;;4951469;28;20126;-69
2023/07/29 00:40:22;;;;;;;4.05;2.60;;;26.10;52.70;;;;;;4947358;28;20392;-69
2023/07/29 00:42:50;;;;;;;4.80;2.78;;;25.80;51.90;;;;;;4935381;28;20030;-69
2023/07/29 00:45:17;;;;;;;5.90;2.75;;;25.80;51.80;;;;;;4948816;28;20019;-68
2023/07/29 00:47:45;;;;;;;7.78;2.50;;;25.80;51.50;;;;;;4943404;28;20094;-69
2023/07/29 00:50:14;;;;;;;4.07;2.25;;;26.30;50.20;;;;;;4952658;28;20050;-70
2023/07/29 00:52:42;;;;;;;6.53;2.58;;;26.80;50.20;;;;;;4952775;28;20067;-70
2023/07/29 00:55:10;;;;;;;6.43;2.30;;;27.20;49.50;;;;;;4952439;28;20024;-69
2023/07/29 00:57:37;;;;;;;8.30;2.08;;;27.50;47.80;;;;;;4953709;28;20146;-69
2023/07/29 01:00:05;;;;;;;4.70;1.90;;;27.10;47.90;;;;;;4950503;28;20094;-69
2023/07/29 01:02:32;;;;;;;4.60;1.83;;;26.70;48.40;;;;;;4950326;28;20125;-69
2023/07/29 01:05:01;;;;;;;5.55;1.98;;;26.90;49.60;;;;;;4971224;28;20027;-70
2023/07/29 01:07:37;;;;;;;4.50;2.05;;;27.00;49.70;;;;;;4943926;28;20046;-68
2023/07/29 01:10:05;;;;;;;3.45;1.60;;;26.80;48.30;;;;;;4949292;28;20519;-69
2023/07/29 01:12:49;;;;;;;4.30;1.85;;;25.20;49.80;;;;;;4950283;28;20112;-69
2023/07/29 01:15:47;;;;;;;4.55;1.40;;;24.00;52.90;;;;;;4952169;28;20066;-69
2023/07/29 01:18:23;;;;;;;4.13;1.63;;;23.50;53.90;;;;;;4951572;28;20031;-69
2023/07/29 01:20:59;;;;;;;5.40;1.85;;;23.10;55.30;;;;;;4957170;28;20873;-69
2023/07/29 01:23:34;;;;;;;8.27;1.80;;;22.90;56.00;;;;;;4946900;28;20024;-69
2023/07/29 01:26:02;;;;;;;7.00;1.85;;;22.70;57.10;;;;;;4951748;28;20027;-70
2023/07/29 01:28:29;;;;;;;3.88;1.77;;;22.50;56.90;;;;;;4950361;28;20046;-69
2023/07/29 01:31:16;;;;;;;4.95;1.77;;;22.20;58.50;;;;;;4949651;28;20061;-69
2023/07/29 01:33:51;;;;;;;4.93;1.55;;;22.00;58.70;;;;;;4949089;28;20071;-70
2023/07/29 01:36:23;;;;;;;5.18;1.50;;;22.10;57.70;;;;;;4948325;28;20067;-69
2023/07/29 01:38:51;;;;;;;4.65;1.45;;;21.90;57.40;;;;;;4951738;28;20043;-69
2023/07/29 01:41:21;;;;;;;2.65;1.27;;;22.00;57.70;;;;;;4949983;28;20393;-69
2023/07/29 01:43:48;;;;;;;3.47;0.90;;;22.00;56.70;;;;;;4951358;28;20055;-69
2023/07/29 01:46:16;;;;;;;1.88;0.80;;;22.00;56.80;;;;;;4951108;28;20321;-70
2023/07/29 01:48:44;;;;;;;4.25;1.25;;;22.00;56.40;;;;;;4949040;28;20165;-70
2023/07/29 01:51:13;;;;;;;2.80;1.08;;;22.10;57.10;;;;;;4951160;28;20085;-69
2023/07/29 01:53:40;;;;;;;1.60;0.90;;;22.20;56.80;;;;;;4948805;28;20046;-69
2023/07/29 01:56:07;;;;;;;1.40;0.80;;;22.30;56.70;;;;;;4951771;28;20389;-70
2023/07/29 01:58:35;;;;;;;5.15;0.93;;;22.50;55.70;;;;;;4948420;28;20497;-70
2023/07/29 02:01:02;;;;;;;3.38;1.02;;;22.50;55.80;;;;;;4953772;28;20095;-69
2023/07/29 02:03:29;;;;;;;3.90;1.10;;;22.30;55.40;;;;;;4948320;28;20032;-70
2023/07/29 02:05:57;;;;;;;3.38;1.00;;;22.50;55.10;;;;;;4950147;28;20073;-69
2023/07/29 02:08:24;;;;;;;1.42;0.75;;;22.50;54.70;;;;;;4948152;28;20110;-69
2023/07/29 02:10:51;;;;;;;2.15;0.82;;;23.00;54.70;;;;;;4964902;28;20042;-69
2023/07/29 02:13:19;;;;;;;4.15;1.05;;;23.70;52.10;;;;;;4946822;28;20090;-69
2023/07/29 02:15:46;;;;;;;3.53;0.90;;;24.50;50.80;;;;;;4951072;28;20063;-69
2023/07/29 02:18:13;;;;;;;5.22;1.05;;;25.60;49.00;;;;;;4947995;28;20413;-69
2023/07/29 02:20:45;;;;;;;2.35;0.85;;;26.30;48.20;;;;;;4950107;28;20051;-69
2023/07/29 02:23:13;;;;;;;1.45;0.60;;;26.20;47.20;;;;;;4951348;28;20106;-68
2023/07/29 02:25:40;;;;;;;3.40;0.98;;;25.80;47.20;;;;;;4949670;28;20485;-69
2023/07/29 02:28:07;;;;;;;1.42;0.80;;;24.60;49.70;;;;;;4952643;28;20054;-69
2023/07/29 02:30:35;;;;;;;2.70;0.70;;;24.00;51.20;;;;;;4955651;28;20024;-70
2023/07/29 02:33:02;;;;;;;4.05;1.17;;;23.80;51.10;;;;;;4952477;28;20031;-69
2023/07/29 02:35:29;;;;;;;3.42;1.02;;;23.70;52.20;;;;;;4954592;28;20489;-69
2023/07/29 02:37:57;;;;;;;4.20;1.08;;;23.40;52.10;;;;;;4953955;28;20461;-70
2023/07/29 02:40:26;;;;;;;4.43;0.82;;;23.10;52.90;;;;;;4953025;28;20050;-67
2023/07/29 02:42:54;;;;;;;2.38;0.95;;;23.70;53.50;;;;;;4953327;28;20066;-69
2023/07/29 02:45:21;;;;;;;1.77;0.70;;;24.70;50.60;;;;;;4952113;28;20031;-69
2023/07/29 02:47:48;;;;;;;4.78;0.98;;;24.70;50.40;;;;;;4953001;28;20416;-69
2023/07/29 02:50:16;;;;;;;1.85;0.80;;;24.70;50.60;;;;;;4953638;28;20034;-69
2023/07/29 02:52:43;;;;;;;1.67;1.00;;;25.60;49.10;;;;;;4952368;28;20035;-69
2023/07/29 02:55:10;;;;;;;2.92;1.02;;;26.20;48.50;;;;;;4953680;28;20027;-69
2023/07/29 02:57:37;;;;;;;2.45;0.93;;;26.20;48.20;;;;;;4955799;28;20098;-69
2023/07/29 03:00:07;;;;;;;4.97;1.30;;;26.20;47.70;;;;;;4960026;28;20419;-69
2023/07/29 03:02:34;;;;;;;4.80;1.10;;;26.00;48.00;;;;;;4953111;28;20066;-69
2023/07/29 03:05:02;;;;;;;3.72;1.00;;;25.40;49.10;;;;;;4953998;28;20034;-68
2023/07/29 03:07:29;;;;;;;2.63;0.80;;;25.20;49.20;;;;;;4952840;28;20433;-68
2023/07/29 03:09:57;;;;;;;4.05;1.08;;;24.70;50.60;;;;;;4953328;28;20074;-68
2023/07/29 03:12:24;;;;;;;2.35;0.88;;;24.20;51.30;;;;;;4955482;28;20043;-68
2023/07/29 03:14:52;;;;;;;0.90;0.55;;;23.90;52.00;;;;;;4952723;28;20027;-68
2023/07/29 03:17:19;;;;;;;2.35;0.70;;;24.00;51.90;;;;;;4954301;28;20035;-68
2023/07/29 03:19:46;;;;;;;3.00;0.60;;;23.90;52.10;;;;;;4956431;28;20043;-69
2023/07/29 03:22:14;;;;;;;1.73;0.75;;;23.90;51.50;;;;;;4950211;28;20473;-68
2023/07/29 03:24:42;;;;;;;2.70;0.80;;;24.10;52.50;;;;;;4956434;28;20393;-69
2023/07/29 03:27:09;;;;;;;3.47;0.93;;;24.40;51.20;;;;;;4949805;28;20043;-69
2023/07/29 03:29:37;;;;;;;1.83;0.73;;;24.30;51.10;;;;;;4952766;28;20110;-69
2023/07/29 03:32:04;;;;;;;1.70;0.70;;;25.00;51.70;;;;;;4950906;28;20082;-69
2023/07/29 03:34:32;;;;;;;3.22;0.70;;;25.20;49.10;;;;;;4952076;28;20020;-70
2023/07/29 03:36:59;;;;;;;2.60;1.15;;;25.20;49.60;;;;;;4951743;28;20035;-68
2023/07/29 03:39:27;;;;;;;2.08;0.82;;;25.10;49.70;;;;;;4955762;28;20043;-69
2023/07/29 03:41:54;;;;;;;2.55;0.95;;;24.50;50.90;;;;;;4950583;28;20122;-69
2023/07/29 03:44:22;;;;;;;3.60;0.70;;;24.50;51.50;;;;;;4949658;28;20118;-69
2023/07/29 03:46:49;;;;;;;2.92;1.02;;;24.70;50.60;;;;;;4944964;28;20403;-69
2023/07/29 03:49:16;;;;;;;3.47;1.45;;;24.70;51.00;;;;;;4953601;28;20037;-70
2023/07/29 03:51:44;;;;;;;5.68;1.00;;;24.80;50.20;;;;;;4954978;28;20075;-70
2023/07/29 03:54:12;;;;;;;4.32;0.85;;;24.60;50.50;;;;;;4952379;28;20027;-71
2023/07/29 03:56:39;;;;;;;4.50;0.95;;;24.70;50.60;;;;;;4953077;28;20035;-70
2023/07/29 03:59:07;;;;;;;4.50;0.80;;;24.60;50.70;;;;;;4951740;28;20535;-69
2023/07/29 04:01:34;;;;;;;4.00;0.80;;;24.60;50.70;;;;;;4951399;28;20469;-69
2023/07/29 04:04:01;;;;;;;1.90;0.93;;;24.60;50.50;;;;;;4951564;28;20119;-69
2023/07/29 04:06:29;;;;;;;6.65;1.48;;;24.60;50.60;;;;;;4957548;28;20110;-69
2023/07/29 04:08:56;;;;;;;3.22;0.63;;;24.60;50.30;;;;;;4957061;28;20031;-68
2023/07/29 04:11:24;;;;;;;2.50;0.73;;;24.30;50.30;;;;;;4956551;28;20106;-68
2023/07/29 04:13:51;;;;;;;2.03;0.63;;;24.20;51.10;;;;;;4951784;28;20042;-68
2023/07/29 04:16:20;;;;;;;3.58;0.80;;;24.10;50.70;;;;;;4950497;28;20436;-69
2023/07/29 04:18:47;;;;;;;5.03;0.80;;;24.20;51.00;;;;;;4945076;28;20033;-69
2023/07/29 04:21:14;;;;;;;4.20;0.95;;;24.10;51.20;;;;;;4956790;28;20498;-68
2023/07/29 04:23:42;;;;;;;2.80;0.65;;;24.10;51.40;;;;;;4954489;28;20452;-69
2023/07/29 04:26:09;;;;;;;1.85;0.70;;;23.90;52.00;;;;;;4954118;28;20035;-69
2023/07/29 04:28:36;;;;;;;4.05;0.70;;;23.60;52.10;;;;;;4934398;28;20067;-68
2023/07/29 04:31:04;;;;;;;4.00;1.00;;;23.50;52.60;;;;;;4959023;28;20545;-69
2023/07/29 04:33:31;;;;;;;4.78;0.70;;;23.30;53.70;;;;;;4957833;28;20034;-68
2023/07/29 04:35:58;;;;;;;3.40;0.82;;;23.30;53.00;;;;;;4961674;28;20074;-68
2023/07/29 04:38:33;;;;;;;3.35;0.80;;;23.60;52.30;;;;;;4955456;28;20500;-68
2023/07/29 04:41:06;;;;;;;1.63;0.77;;;23.60;52.20;;;;;;4959616;28;20122;-68
2023/07/29 04:43:34;;;;;;;2.50;0.73;;;23.40;53.00;;;;;;4951671;28;20041;-69
2023/07/29 04:46:01;;;;;;;1.80;0.98;;;23.50;52.70;;;;;;4952396;28;20091;-68
2023/07/29 04:48:29;;;;;;;2.25;0.98;;;23.50;52.70;;;;;;4951924;28;20043;-68
2023/07/29 04:50:56;;;;;;;4.38;0.93;;;23.50;53.10;;;;;;4953788;28;20412;-69
2023/07/29 04:53:23;;;;;;;2.05;0.95;;;23.50;52.80;;;;;;4950592;28;20023;-69
2023/07/29 04:55:51;;;;;;;3.00;0.93;;;23.40;52.90;;;;;;4954372;28;20027;-69
2023/07/29 04:58:18;;;;;;;6.35;0.90;;;23.40;53.30;;;;;;4950384;28;20049;-68
2023/07/29 05:00:47;;;;;;;1.67;0.80;;;23.40;53.90;;;;;;4957162;28;20091;-69
2023/07/29 05:03:15;;;;;;;1.52;0.77;;;23.40;53.40;;;;;;4957952;28;20347;-69
2023/07/29 05:05:42;;;;;;;2.28;0.90;;;23.40;53.70;;;;;;4949751;28;20031;-70
2023/07/29 05:08:09;;;;;;;3.22;1.00;;;23.20;54.00;;;;;;4952440;28;20392;-70
2023/07/29 05:10:37;;;;;;;3.00;0.80;;;23.20;54.50;;;;;;4946832;28;20023;-69
2023/07/29 05:13:04;;;;;;;3.13;0.98;;;23.10;54.20;;;;;;4949855;28;20031;-70
2023/07/29 05:15:31;;;;;;;2.60;0.70;;;23.00;54.40;;;;;;4947350;28;20068;-70
2023/07/29 05:17:59;;;;;;;3.35;1.00;;;23.10;54.80;;;;;;4958473;28;20547;-69
2023/07/29 05:20:26;;;;;;;6.00;1.15;;;23.10;55.10;;;;;;4951417;28;20047;-71
2023/07/29 05:22:54;;;;;;;3.22;1.10;;;23.10;55.10;;;;;;4948191;28;20560;-71
2023/07/29 05:25:21;;;;;;;2.67;0.93;;;23.10;55.50;;;;;;4953866;28;20023;-69
2023/07/29 05:27:48;;;;;;;2.63;0.90;;;23.00;54.80;;;;;;4946778;28;20103;-70
2023/07/29 05:30:16;;;;;;;2.15;0.88;;;23.00;54.40;;;;;;4951933;28;20039;-69
2023/07/29 05:32:43;;;;;;;2.05;0.82;;;22.80;55.10;;;;;;4950424;28;20397;-70
2023/07/29 05:35:10;;;;;;;5.20;0.90;;;22.90;55.20;;;;;;4951513;28;20035;-68
2023/07/29 05:37:41;;;;;;;1.55;0.80;;;22.70;55.50;;;;;;4946322;28;20035;-69
2023/07/29 05:40:09;;;;;;;1.60;1.08;;;22.50;56.20;;;;;;4951767;28;20082;-69
2023/07/29 05:42:36;;;;;;;2.92;1.20;;;22.60;56.40;;;;;;4949572;28;20035;-70
2023/07/29 05:45:04;;;;;;;2.45;1.00;;;22.60;56.50;;;;;;4950310;28;20118;-69
2023/07/29 05:47:31;;;;;;;2.33;1.00;;;22.60;56.20;;;;;;4949814;28;20499;-69
2023/07/29 05:49:59;;;;;;;3.55;1.00;;;22.60;56.50;;;;;;4949629;28;22887;-69
2023/07/29 05:52:27;;;;;;;4.70;1.25;;;22.60;56.10;;;;;;4949855;28;20042;-69
2023/07/29 05:54:54;;;;;;;2.20;1.30;;;22.60;55.30;;;;;;4946641;28;20791;-70
2023/07/29 05:57:21;;;;;;;1.95;1.10;;;22.50;55.50;;;;;;4949467;28;20130;-69
2023/07/29 05:59:49;;;;;;;4.28;1.15;;;22.60;56.00;;;;;;4948239;28;20425;-69
2023/07/29 06:02:16;;;;;;;1.98;0.98;;;22.60;56.30;;;;;;4947885;28;20097;-69
2023/07/29 06:04:43;;;;;;;3.65;1.13;;;22.70;55.60;;;;;;4950460;28;20039;-70
2023/07/29 06:07:11;;;;;;;4.68;1.17;;;22.70;56.00;;;;;;4944313;28;20031;-68
2023/07/29 06:09:38;;;;;;;2.05;0.93;;;22.80;55.00;;;;;;4950598;28;20053;-70
2023/07/29 06:12:06;;;;;;;4.22;1.20;;;22.80;55.30;;;;;;4951008;28;20074;-69
2023/07/29 06:14:33;;;;;;;2.80;1.23;;;22.70;55.70;;;;;;4951322;28;20377;-68
2023/07/29 06:17:00;;;;;;;2.30;0.93;;;22.60;55.60;;;;;;4950127;28;20038;-68
2023/07/29 06:19:28;;;;;;;2.72;0.85;;;22.60;55.80;;;;;;4951284;28;20385;-69
2023/07/29 06:21:56;;;;;;;1.85;0.90;;;22.40;56.80;;;;;;4953377;28;20122;-68
2023/07/29 06:24:24;;;;;;;2.40;1.35;;;22.40;58.10;;;;;;4949669;28;20110;-68
2023/07/29 06:26:51;;;;;;;3.78;1.33;;;22.30;57.30;;;;;;4947956;28;20031;-69
2023/07/29 06:29:19;;;;;;;2.30;1.25;;;22.60;56.60;;;;;;4954054;28;20039;-69
2023/07/29 06:31:46;;;;;;;4.20;1.27;;;22.70;56.40;;;;;;4956724;28;20093;-69
2023/07/29 06:34:13;;;;;;;2.33;0.88;;;22.60;57.40;;;;;;4950523;28;20039;-69
2023/07/29 06:36:41;;;;;;;2.95;1.10;;;22.60;57.80;;;;;;4947186;28;20064;-70
2023/07/29 06:39:08;;;;;;;2.47;1.15;;;22.50;58.80;;;;;;4947897;28;20078;-69
2023/07/29 06:41:35;;;;;;;3.55;1.63;;;22.40;58.70;;;;;;4946425;28;20137;-69
2023/07/29 06:44:02;;;;;;;2.20;1.48;;;22.20;59.10;;;;;;4950612;28;20035;-68
2023/07/29 06:46:30;;;;;;;2.97;1.73;;;22.00;59.20;;;;;;4957258;28;20041;-69
2023/07/29 06:48:57;;;;;;;4.93;2.45;;;21.80;59.70;;;;;;4953970;28;20031;-68
2023/07/29 06:51:24;;;;;;;5.15;1.60;;;21.60;61.40;;;;;;4949087;28;20488;-69
2023/07/29 06:53:52;;;;;;;5.65;1.60;;;21.50;61.40;;;;;;4950090;28;20035;-71
2023/07/29 06:56:19;;;;;;;2.60;1.40;;;21.20;62.30;;;;;;4954637;28;20119;-69
2023/07/29 06:58:47;;;;;;;7.57;2.03;;;21.00;62.60;;;;;;4954627;28;20074;-68
2023/07/29 07:01:14;;;;;;;4.40;2.13;;;20.80;63.30;;;;;;4949418;28;20047;-68
2023/07/29 07:03:41;;;;;;;7.28;2.47;;;20.70;64.60;;;;;;4947263;28;20038;-68
2023/07/29 07:06:09;;;;;;;6.78;2.97;;;20.60;64.80;;;;;;4951063;28;20053;-69
2023/07/29 07:08:36;;;;;;;13.50;4.63;;;20.40;65.60;;;;;;4949248;28;20027;-69
2023/07/29 07:11:04;;;;;;;11.20;4.80;;;20.20;66.10;;;;;;4953331;28;20023;-69
2023/07/29 07:13:31;;;;;;;9.65;4.88;;;20.10;66.40;;;;;;4952161;28;20125;-69
2023/07/29 07:15:58;;;;;;;9.00;4.72;;;20.00;68.20;;;;;;4952106;28;20035;-70
2023/07/29 07:18:25;;;;;;;11.02;4.65;;;20.20;68.10;;;;;;4945978;28;20364;-70
2023/07/29 07:20:53;;;;;;;9.38;3.75;;;20.00;67.20;;;;;;4950419;28;20571;-69
2023/07/29 07:23:20;;;;;;;7.72;4.65;;;19.80;68.80;;;;;;4945469;28;20071;-67
2023/07/29 07:25:47;;;;;;;10.73;4.43;;;19.60;69.60;;;;;;4951316;28;20027;-68
2023/07/29 07:28:15;;;;;;;10.63;4.22;;;19.40;70.00;;;;;;4951018;28;20516;-69
2023/07/29 07:30:42;;;;;;;10.65;4.50;;;19.30;70.00;;;;;;4955267;28;20061;-69
2023/07/29 07:33:10;;;;;;;5.43;2.60;;;19.20;70.90;;;;;;4952524;28;20114;-69
2023/07/29 07:35:38;;;;;;;6.63;3.70;;;19.20;69.30;;;;;;4955460;28;20031;-69
2023/07/29 07:38:07;;;;;;;10.30;4.28;;;19.20;69.70;;;;;;4952404;28;20027;-70
2023/07/29 07:40:34;;;;;;;11.25;4.68;;;19.10;70.50;;;;;;4953452;28;20039;-68
2023/07/29 07:43:02;;;;;;;9.73;5.35;;;19.00;70.90;;;;;;4951931;28;20039;-70
2023/07/29 07:45:29;;;;;;;17.77;8.68;;;18.80;71.60;;;;;;4943552;28;20066;-69
2023/07/29 07:47:57;;;;;;;20.05;9.95;;;18.70;72.10;;;;;;4942053;28;20114;-68
2023/07/29 07:50:24;;;;;;;21.85;11.40;;;18.60;72.90;;;;;;4951445;28;20403;-68
2023/07/29 07:52:52;;;;;;;25.45;11.63;;;18.50;73.20;;;;;;4950231;28;20030;-70
2023/07/29 07:55:19;;;;;;;30.15;14.65;;;18.50;74.00;;;;;;4948210;28;20098;-68
2023/07/29 07:57:47;;;;;;;23.73;12.85;;;18.40;74.00;;;;;;4952190;28;20054;-70
2023/07/29 08:00:15;;;;;;;29.05;12.50;;;18.40;74.30;;;;;;4951332;28;20039;-68
2023/07/29 08:02:44;;;;;;;27.50;11.30;;;18.30;74.30;;;;;;4950366;28;20031;-69
2023/07/29 08:05:12;;;;;;;22.38;11.05;;;18.30;74.30;;;;;;4953898;28;20031;-69
2023/07/29 08:07:39;;;;;;;21.27;10.98;;;18.20;75.20;;;;;;4952900;28;20031;-69
2023/07/29 08:10:07;;;;;;;19.20;9.35;;;18.10;75.90;;;;;;4948893;28;20133;-69
2023/07/29 08:12:34;;;;;;;19.50;8.70;;;18.00;76.40;;;;;;4953992;28;20142;-69
2023/07/29 08:15:02;;;;;;;15.38;7.45;;;17.90;77.00;;;;;;4952349;28;20384;-70
2023/07/29 08:17:30;;;;;;;15.00;6.40;;;17.80;77.30;;;;;;4951395;28;20032;-69
2023/07/29 08:19:57;;;;;;;15.27;5.80;;;17.70;77.60;;;;;;4952173;28;20039;-69
2023/07/29 08:22:25;;;;;;;12.95;5.90;;;17.60;78.00;;;;;;4951431;28;20216;-69
2023/07/29 08:24:52;;;;;;;9.50;4.95;;;17.60;78.80;;;;;;4951008;28;20035;-68
2023/07/29 08:27:19;;;;;;;11.27;4.72;;;17.60;78.80;;;;;;4951707;28;20024;-68
2023/07/29 08:29:47;;;;;;;12.55;5.57;;;17.60;79.20;;;;;;4948467;28;20412;-69
2023/07/29 08:32:14;;;;;;;9.48;4.85;;;17.50;79.40;;;;;;4954543;28;20035;-68
2023/07/29 08:34:41;;;;;;;9.95;4.70;;;17.40;80.10;;;;;;4945812;28;20066;-69
2023/07/29 08:37:09;;;;;;;10.10;4.45;;;17.30;80.80;;;;;;4940302;28;20513;-69
2023/07/29 08:39:36;;;;;;;10.18;5.32;;;17.20;81.80;;;;;;4949119;28;20055;-68
2023/07/29 08:42:07;;;;;;;14.07;6.03;;;17.10;82.60;;;;;;4948087;28;20374;-69
2023/07/29 08:44:44;;;;;;;9.13;5.20;;;16.90;83.20;;;;;;4947603;28;20027;-68
2023/07/29 08:47:16;;;;;;;9.25;5.60;;;16.90;84.30;;;;;;4945410;28;20456;-69
2023/07/29 08:49:45;;;;;;;7.97;5.00;;;16.80;84.30;;;;;;4949493;28;20471;-69
2023/07/29 08:52:14;;;;;;;12.93;5.30;;;16.80;84.60;;;;;;4948520;28;20515;-69
2023/07/29 08:54:41;;;;;;;9.63;4.50;;;16.80;84.10;;;;;;4934702;28;20250;-69
2023/07/29 08:57:09;;;;;;;9.38;4.63;;;16.70;84.20;;;;;;4950446;28;20130;-69
2023/07/29 08:59:37;;;;;;;7.80;4.25;;;16.70;84.40;;;;;;4952832;28;20129;-69
2023/07/29 09:02:05;;;;;;;7.85;3.67;;;16.70;84.90;;;;;;4948583;28;20102;-69
2023/07/29 09:04:32;;;;;;;5.97;3.97;;;16.60;85.30;;;;;;4950826;28;20385;-69
2023/07/29 09:07:00;;;;;;;9.07;4.53;;;16.80;85.30;;;;;;4948200;28;20130;-69
2023/07/29 09:09:28;;;;;;;14.80;7.47;;;16.90;85.10;;;;;;4951936;28;20102;-68
2023/07/29 09:11:56;;;;;;;14.63;8.70;;;16.90;85.20;;;;;;4949862;28;20023;-67
2023/07/29 09:14:26;;;;;;;14.55;7.90;;;16.80;85.60;;;;;;4947932;28;20101;-68
2023/07/29 09:16:53;;;;;;;16.92;8.15;;;16.50;86.40;;;;;;4943171;28;20113;-68
2023/07/29 09:19:21;;;;;;;17.80;8.77;;;16.40;87.20;;;;;;4948394;28;20035;-68
2023/07/29 09:21:49;;;;;;;19.15;8.27;;;16.30;87.50;;;;;;4945274;28;20035;-69
2023/07/29 09:24:18;;;;;;;14.75;8.00;;;16.00;88.40;;;;;;4954969;28;21132;-69
2023/07/29 09:26:55;;;;;;;17.77;7.97;;;15.80;89.60;;;;;;4948209;28;20039;-69
2023/07/29 09:29:26;;;;;;;14.93;7.15;;;15.70;90.20;;;;;;4946951;28;20031;-69
2023/07/29 09:31:53;;;;;;;15.98;5.72;;;15.70;90.40;;;;;;4948726;28;20023;-69
2023/07/29 09:34:21;;;;;;;15.13;6.90;;;15.60;90.50;;;;;;4950907;28;20023;-68
2023/07/29 09:36:51;;;;;;;11.60;6.43;;;15.60;90.70;;;;;;4944396;28;20473;-69
2023/07/29 09:39:19;;;;;;;15.23;6.22;;;15.60;90.80;;;;;;4949343;28;20137;-69
2023/07/29 09:41:51;;;;;;;12.60;6.60;;;15.60;90.80;;;;;;4942127;28;20097;-69
2023/07/29 09:44:18;;;;;;;13.25;7.13;;;15.60;90.90;;;;;;4953754;28;20116;-68
2023/07/29 09:46:47;;;;;;;14.15;7.00;;;15.60;91.20;;;;;;4950422;28;20027;-68
2023/07/29 09:49:14;;;;;;;19.80;8.10;;;16.00;90.20;;;;;;4933186;28;20452;-68
2023/07/29 09:51:42;;;;;;;15.07;7.18;;;16.00;89.90;;;;;;4946395;28;20031;-67
2023/07/29 09:54:13;;;;;;;12.77;7.35;;;15.80;89.80;;;;;;4951374;28;20048;-67
2023/07/29 09:56:44;;;;;;;13.90;6.60;;;15.60;90.30;;;;;;4935169;28;20047;-69
2023/07/29 09:59:12;;;;;;;17.35;7.20;;;15.50;90.70;;;;;;4949313;28;20087;-67
2023/07/29 10:01:40;;;;;;;13.80;6.32;;;15.30;91.20;;;;;;4948107;28;20066;-69
2023/07/29 10:04:08;;;;;;;12.00;6.47;;;15.30;91.30;;;;;;4950473;28;20074;-69
2023/07/29 10:06:37;;;;;;;12.00;6.65;;;15.20;91.70;;;;;;4950058;28;20520;-68
2023/07/29 10:09:05;;;;;;;17.40;6.60;;;15.20;91.80;;;;;;4951028;28;20118;-67
2023/07/29 10:11:34;;;;;;;11.35;5.72;;;15.10;92.00;;;;;;4952570;28;20055;-69
2023/07/29 10:14:01;;;;;;;11.40;5.55;;;15.10;92.00;;;;;;4951721;28;20027;-69
2023/07/29 10:16:29;;;;;;;8.20;5.00;;;15.00;92.40;;;;;;4950674;28;20085;-68
2023/07/29 10:18:57;;;;;;;11.60;6.13;;;14.90;92.30;;;;;;4950463;28;20166;-68
2023/07/29 10:21:24;;;;;;;15.85;6.57;;;14.90;92.50;;;;;;4952269;28;20039;-68
2023/07/29 10:23:58;;;;;;;11.70;6.63;;;14.80;92.60;;;;;;4946723;28;20071;-68
2023/07/29 10:26:29;;;;;;;9.95;5.97;;;14.70;92.70;;;;;;4949005;28;20027;-68
2023/07/29 10:29:04;;;;;;;14.43;6.50;;;14.70;93.00;;;;;;4951192;28;20402;-68
2023/07/29 10:31:33;;;;;;;15.25;6.60;;;14.60;92.90;;;;;;4947568;28;20034;-68
2023/07/29 10:34:00;;;;;;;13.30;6.60;;;14.50;93.30;;;;;;4946931;28;20039;-68
2023/07/29 10:36:29;;;;;;;12.93;6.60;;;14.50;93.20;;;;;;4946649;28;20057;-70
2023/07/29 10:38:56;;;;;;;17.25;7.85;;;14.60;93.00;;;;;;4952465;28;20631;-69
2023/07/29 10:41:24;;;;;;;13.45;6.28;;;14.50;93.40;;;;;;4952570;28;20043;-68
2023/07/29 10:43:51;;;;;;;14.77;6.85;;;14.60;93.50;;;;;;4953108;28;20086;-69
2023/07/29 10:46:21;;;;;;;13.23;6.88;;;14.60;93.60;;;;;;4952336;28;20126;-69
2023/07/29 10:48:51;;;;;;;13.43;7.35;;;14.50;93.60;;;;;;4955399;28;20027;-68
2023/07/29 10:51:35;;;;;;;19.98;8.00;;;14.50;93.70;;;;;;4953577;28;20023;-69
2023/07/29 10:54:14;;;;;;;16.73;9.13;;;14.50;93.60;;;;;;4954755;28;20082;-68
2023/07/29 10:56:43;;;;;;;18.27;9.77;;;14.50;93.70;;;;;;4956500;28;20043;-69
2023/07/29 10:59:17;;;;;;;19.08;7.68;;;14.40;93.60;;;;;;4955565;28;20028;-68
2023/07/29 11:01:57;;;;;;;19.98;10.52;;;14.40;93.80;;;;;;4944026;28;20036;-69
2023/07/29 11:04:30;;;;;;;20.13;10.15;;;14.30;93.50;;;;;;4952595;28;20032;-69
2023/07/29 11:07:07;;;;;;;17.42;9.32;;;14.40;92.80;;;;;;4949052;28;20075;-69
2023/07/29 11:09:54;;;;;;;18.58;8.88;;;14.00;93.30;;;;;;4955126;28;20035;-67
2023/07/29 11:12:53;;;;;;;14.32;8.43;;;13.80;93.70;;;;;;4953089;28;20135;-70
2023/07/29 11:15:23;;;;;;;15.52;7.32;;;13.70;94.10;;;;;;4954202;28;20027;-67
2023/07/29 11:18:01;;;;;;;19.25;8.10;;;13.60;94.20;;;;;;4947818;28;20101;-67
2023/07/29 11:20:34;;;;;;;15.98;7.43;;;13.60;94.30;;;;;;4953681;28;20134;-68
2023/07/29 11:23:05;;;;;;;12.80;7.68;;;13.50;94.50;;;;;;4946162;28;20034;-67
2023/07/29 11:25:36;;;;;;;17.17;9.52;;;13.50;94.50;;;;;;4953929;28;20090;-68
2023/07/29 11:28:03;;;;;;;17.00;8.30;;;13.40;94.70;;;;;;4935800;28;20030;-68
2023/07/29 11:30:31;;;;;;;14.30;8.10;;;13.30;94.90;;;;;;4958496;28;20118;-68
2023/07/29 11:32:59;;;;;;;17.60;7.75;;;13.30;95.10;;;;;;4951202;28;20438;-68
2023/07/29 11:35:27;;;;;;;12.15;7.35;;;13.20;95.10;;;;;;4954558;28;20035;-67
2023/07/29 11:37:58;;;;;;;17.02;7.60;;;13.20;95.20;;;;;;4953092;28;20118;-67
2023/07/29 11:40:26;;;;;;;14.98;7.97;;;13.20;95.20;;;;;;4937927;28;20043;-67
2023/07/29 11:42:54;;;;;;;16.92;8.75;;;13.20;95.00;;;;;;4954330;28;20055;-68
2023/07/29 11:45:23;;;;;;;16.25;8.25;;;13.10;95.10;;;;;;4948998;28;20485;-67
2023/07/29 11:47:51;;;;;;;17.35;7.90;;;13.20;95.20;;;;;;4951399;28;20422;-66
2023/07/29 11:50:18;;;;;;;14.35;8.32;;;13.20;95.20;;;;;;4951824;28;20132;-68
2023/07/29 11:52:46;;;;;;;15.65;8.27;;;13.20;95.20;;;;;;4950687;28;20023;-68
2023/07/29 11:55:15;;;;;;;19.77;8.30;;;13.20;95.20;;;;;;4952426;28;20473;-70
2023/07/29 11:57:44;;;;;;;16.00;9.13;;;13.20;95.10;;;;;;4944591;28;20473;-68
2023/07/29 12:00:12;;;;;;;13.98;8.30;;;13.10;95.10;;;;;;4951766;28;20085;-68
2023/07/29 12:02:44;;;;;;;16.25;8.02;;;13.10;95.20;;;;;;4950093;28;20381;-68
2023/07/29 12:05:12;;;;;;;22.05;8.90;;;13.00;95.20;;;;;;4954540;28;20019;-68
2023/07/29 12:07:40;;;;;;;16.25;8.73;;;13.00;95.40;;;;;;4952515;28;20091;-69
2023/07/29 12:10:08;;;;;;;26.58;13.32;;;12.90;95.50;;;;;;4952404;28;20070;-67
2023/07/29 12:12:48;;;;;;;26.80;13.48;;;12.80;95.70;;;;;;4951363;28;20090;-67
2023/07/29 12:15:26;;;;;;;27.52;16.08;;;12.80;95.60;;;;;;4952602;28;20027;-69
2023/07/29 12:17:55;;;;;;;;;;;12.70;95.70;;;;;;4968339;28;20424;-67
2023/07/29 12:20:24;;;;;;;19.13;11.95;;;12.70;95.80;;;;;;4952284;28;20364;-68
2023/07/29 12:22:58;;;;;;;19.90;10.68;;;12.60;95.70;;;;;;4955320;28;20066;-67
2023/07/29 12:25:29;;;;;;;16.52;8.98;;;12.60;95.60;;;;;;4952230;28;20031;-69
2023/07/29 12:27:57;;;;;;;14.80;7.88;;;12.50;95.80;;;;;;4949587;28;20160;-69
2023/07/29 12:30:27;;;;;;;17.00;8.60;;;12.40;95.60;;;;;;4946296;28;20157;-68
2023/07/29 12:32:55;;;;;;;22.30;8.98;;;12.30;95.70;;;;;;4950720;28;20396;-68
2023/07/29 12:35:22;;;;;;;15.52;8.70;;;12.20;95.90;;;;;;4949671;28;20031;-69
2023/07/29 12:38:00;;;;;;;21.00;8.40;;;12.10;95.90;;;;;;4944244;28;21000;-69
2023/07/29 12:40:28;;;;;;;15.75;9.50;;;12.10;96.10;;;;;;4959077;28;20053;-67
2023/07/29 12:42:56;;;;;;;19.50;10.93;;;12.20;96.20;;;;;;4943707;28;20050;-68
2023/07/29 12:45:26;;;;;;;17.27;10.57;;;12.10;96.00;;;;;;4951047;28;20421;-68
2023/07/29 12:47:54;;;;;;;23.45;14.38;;;12.20;95.90;;;;;;4950777;28;20086;-68
2023/07/29 12:50:21;;;;;;;25.48;15.20;;;12.00;95.90;;;;;;4949824;28;20028;-69